createdAt,value
2022-12-16T00:02:01.262Z,19.90
2022-12-16T00:04:29.610Z,19.65
2022-12-16T00:06:57.890Z,18.85
2022-12-16T00:09:27.485Z,18.23
2022-12-16T00:11:55.800Z,15.95
2022-12-16T00:14:24.233Z,21.70
2022-12-16T00:16:52.500Z,15.40
2022-12-16T00:19:20.738Z,13.93
2022-12-16T00:21:49.019Z,16.38
2022-12-16T00:24:17.384Z,20.05
2022-12-16T00:26:46.975Z,19.20
2022-12-16T00:29:15.292Z,17.75
2022-12-16T00:31:48.075Z,18.35
2022-12-16T00:34:16.517Z,21.25
2022-12-16T00:36:45.265Z,15.95
2022-12-16T00:39:13.489Z,17.67
2022-12-16T00:41:41.775Z,12.90
2022-12-16T00:44:11.430Z,14.18
2022-12-16T00:46:39.744Z,15.18
2022-12-16T00:49:08.010Z,15.00
2022-12-16T00:51:36.460Z,15.30
2022-12-16T00:54:04.832Z,15.55
2022-12-16T00:56:35.347Z,16.10
2022-12-16T00:59:03.627Z,16.55
2022-12-16T01:01:33.325Z,15.25
2022-12-16T01:04:01.686Z,13.20
2022-12-16T01:06:29.987Z,12.48
2022-12-16T01:08:59.079Z,16.65
2022-12-16T01:11:27.365Z,14.85
2022-12-16T01:13:55.607Z,14.82
2022-12-16T01:16:24.187Z,14.20
2022-12-16T01:18:55.115Z,14.60
2022-12-16T01:21:23.742Z,15.68
2022-12-16T01:23:51.958Z,17.70
2022-12-16T01:26:23.544Z,14.02
2022-12-16T01:28:52.056Z,12.73
2022-12-16T01:31:20.947Z,17.70
2022-12-16T01:33:49.493Z,15.10
2022-12-16T01:36:19.956Z,16.77
2022-12-16T01:38:48.465Z,18.25
2022-12-16T01:41:17.257Z,16.05
2022-12-16T01:43:46.200Z,14.85
2022-12-16T01:46:18.072Z,15.82
2022-12-16T01:48:48.788Z,16.75
2022-12-16T01:51:23.027Z,14.90
2022-12-16T01:53:52.238Z,14.05
2022-12-16T01:56:26.187Z,13.57
2022-12-16T01:58:54.816Z,16.67
2022-12-16T02:01:23.767Z,14.82
2022-12-16T02:03:54.260Z,16.13
2022-12-16T02:06:23.900Z,15.98
2022-12-16T02:08:55.579Z,18.70
2022-12-16T02:11:29.744Z,20.77
2022-12-16T02:14:05.722Z,11.68
2022-12-16T02:16:35.776Z,16.20
2022-12-16T02:19:11.744Z,16.55
2022-12-16T02:21:51.247Z,12.35
2022-12-16T02:24:32.297Z,14.07
2022-12-16T02:27:17.616Z,16.60
2022-12-16T02:30:01.219Z,15.13
2022-12-16T02:32:33.113Z,15.07
2022-12-16T02:35:05.789Z,15.20
2022-12-16T02:37:39.421Z,16.42
2022-12-16T02:40:09.675Z,16.83
2022-12-16T02:42:40.967Z,13.27
2022-12-16T02:45:12.680Z,12.95
2022-12-16T02:47:42.407Z,15.35
2022-12-16T02:50:17.836Z,19.45
2022-12-16T02:52:46.343Z,18.80
2022-12-16T02:55:15.030Z,13.68
2022-12-16T02:57:49.817Z,12.15
2022-12-16T03:00:20.265Z,17.52
2022-12-16T03:02:53.831Z,19.17
2022-12-16T03:05:24.120Z,12.30
2022-12-16T03:07:55.092Z,19.05
2022-12-16T03:10:27.159Z,13.73
2022-12-16T03:12:57.043Z,14.48
2022-12-16T03:15:27.456Z,14.98
2022-12-16T03:17:57.447Z,15.40
2022-12-16T03:20:28.380Z,14.57
2022-12-16T03:22:59.545Z,14.35
2022-12-16T03:25:28.600Z,12.38
2022-12-16T03:27:59.086Z,15.32
2022-12-16T03:30:28.531Z,13.13
2022-12-16T03:33:02.186Z,15.98
2022-12-16T03:35:33.143Z,14.07
2022-12-16T03:38:02.683Z,17.50
2022-12-16T03:40:31.518Z,17.13
2022-12-16T03:43:01.288Z,9.63
2022-12-16T03:45:31.101Z,14.20
2022-12-16T03:48:01.820Z,12.77
2022-12-16T03:50:31.348Z,9.85
2022-12-16T03:52:59.607Z,17.60
2022-12-16T03:55:28.116Z,13.57
2022-12-16T03:57:57.091Z,13.40
2022-12-16T04:00:25.579Z,9.68
2022-12-16T04:02:54.659Z,11.75
2022-12-16T04:05:24.567Z,12.35
2022-12-16T04:07:55.252Z,15.50
2022-12-16T04:10:39.664Z,12.93
2022-12-16T04:13:34.307Z,12.60
2022-12-16T04:16:21.177Z,10.98
2022-12-16T04:19:07.618Z,9.52
2022-12-16T04:21:55.947Z,12.38
2022-12-16T04:24:26.771Z,9.65
2022-12-16T04:27:15.605Z,13.63
2022-12-16T04:29:58.259Z,10.98
2022-12-16T04:32:27.019Z,10.98
2022-12-16T04:34:54.324Z,14.88
2022-12-16T04:37:41.728Z,11.25
2022-12-16T04:40:28.482Z,12.25
2022-12-16T04:43:13.544Z,11.00
2022-12-16T04:46:08.324Z,9.77
2022-12-16T04:48:54.583Z,10.75
2022-12-16T04:51:36.773Z,14.25
2022-12-16T04:54:24.651Z,11.82
2022-12-16T04:57:10.904Z,17.23
2022-12-16T04:59:53.218Z,14.27
2022-12-16T05:02:39.642Z,15.57
2022-12-16T05:05:26.391Z,13.25
2022-12-16T05:08:12.302Z,10.88
2022-12-16T05:10:59.640Z,11.65
2022-12-16T05:13:44.635Z,16.00
2022-12-16T05:16:30.857Z,11.05
2022-12-16T05:19:16.613Z,12.23
2022-12-16T05:22:02.545Z,11.68
2022-12-16T05:24:52.739Z,15.90
2022-12-16T05:27:40.465Z,9.73
2022-12-16T05:30:33.357Z,12.00
2022-12-16T05:33:19.995Z,10.65
2022-12-16T05:36:05.971Z,11.70
2022-12-16T05:38:51.783Z,10.02
2022-12-16T05:41:40.298Z,11.07
2022-12-16T05:44:27.685Z,14.52
2022-12-16T05:47:13.670Z,11.90
2022-12-16T05:49:59.553Z,16.30
2022-12-16T05:52:45.413Z,13.18
2022-12-16T05:55:34.055Z,10.95
2022-12-16T05:58:20.295Z,10.85
2022-12-16T06:01:07.524Z,11.30
2022-12-16T06:03:53.466Z,10.15
2022-12-16T06:06:40.268Z,15.40
2022-12-16T06:09:26.229Z,14.00
2022-12-16T06:12:12.201Z,12.02
2022-12-16T06:14:58.394Z,9.70
2022-12-16T06:17:45.982Z,15.10
2022-12-16T06:20:32.024Z,10.60
2022-12-16T06:23:22.519Z,11.95
2022-12-16T06:26:11.504Z,11.30
2022-12-16T06:28:57.494Z,12.13
2022-12-16T06:31:43.457Z,13.95
2022-12-16T06:34:30.707Z,11.02
2022-12-16T06:37:16.790Z,12.95
2022-12-16T06:40:02.846Z,13.57
2022-12-16T06:42:48.850Z,11.55
2022-12-16T06:45:35.292Z,18.75
2022-12-16T06:48:21.223Z,14.65
2022-12-16T06:51:13.650Z,13.27
2022-12-16T06:53:59.775Z,13.60
2022-12-16T06:56:45.700Z,11.73
2022-12-16T06:59:31.511Z,14.02
2022-12-16T07:02:17.824Z,12.48
2022-12-16T07:05:04.162Z,14.60
2022-12-16T07:08:02.946Z,14.57
2022-12-16T07:10:49.183Z,13.00
2022-12-16T07:13:36.645Z,16.05
2022-12-16T07:16:24.010Z,15.43
2022-12-16T07:19:26.252Z,14.70
2022-12-16T07:22:15.371Z,12.23
2022-12-16T07:25:02.956Z,12.70
2022-12-16T07:27:50.770Z,12.65
2022-12-16T07:30:39.198Z,13.88
2022-12-16T07:33:27.035Z,12.82
2022-12-16T07:36:17.652Z,13.77
2022-12-16T07:39:13.700Z,11.57
2022-12-16T07:42:02.277Z,12.52
2022-12-16T07:44:48.312Z,11.93
2022-12-16T07:47:36.800Z,15.63
2022-12-16T07:50:26.491Z,18.02
2022-12-16T07:53:16.084Z,12.85
2022-12-16T07:56:18.919Z,13.40
2022-12-16T07:59:07.810Z,12.68
2022-12-16T08:01:54.365Z,11.35
2022-12-16T08:04:41.773Z,11.85
2022-12-16T08:07:28.102Z,12.63
2022-12-16T08:10:16.779Z,13.20
2022-12-16T08:13:03.620Z,12.30
2022-12-16T08:15:53.709Z,13.70
2022-12-16T08:18:39.923Z,16.33
2022-12-16T08:21:30.302Z,11.73
2022-12-16T08:24:23.875Z,11.77
2022-12-16T08:27:14.552Z,15.77
2022-12-16T08:30:03.426Z,13.10
2022-12-16T08:33:00.625Z,11.77
2022-12-16T08:36:00.728Z,10.73
2022-12-16T08:38:46.612Z,14.82
2022-12-16T08:41:34.799Z,10.77
2022-12-16T08:44:21.049Z,16.20
2022-12-16T08:47:09.135Z,14.00
2022-12-16T08:49:59.746Z,15.90
2022-12-16T08:52:49.508Z,16.55
2022-12-16T08:55:35.597Z,15.00
2022-12-16T08:58:22.247Z,11.43
2022-12-16T09:01:08.818Z,14.00
2022-12-16T09:04:13.563Z,12.95
2022-12-16T09:07:06.368Z,10.57
2022-12-16T09:09:57.441Z,11.23
2022-12-16T09:12:48.285Z,14.98
2022-12-16T09:15:34.564Z,14.73
2022-12-16T09:18:21.018Z,10.98
2022-12-16T09:21:08.218Z,10.90
2022-12-16T09:23:57.787Z,10.52
2022-12-16T09:26:47.318Z,13.27
2022-12-16T09:29:33.779Z,10.70
2022-12-16T09:32:19.772Z,11.93
2022-12-16T09:35:13.292Z,14.25
2022-12-16T09:38:04.560Z,12.70
2022-12-16T09:40:54.587Z,16.65
2022-12-16T09:43:49.285Z,16.98
2022-12-16T09:46:40.248Z,15.73
2022-12-16T09:49:31.403Z,13.38
2022-12-16T09:52:19.842Z,16.00
2022-12-16T09:55:06.456Z,23.05
2022-12-16T09:57:54.897Z,16.38
2022-12-16T10:00:45.270Z,19.20
2022-12-16T10:03:36.989Z,14.65
2022-12-16T10:06:28.529Z,11.30
2022-12-16T10:09:28.367Z,13.73
2022-12-16T10:16:26.212Z,10.40
2022-12-16T10:19:17.542Z,11.77
2022-12-16T10:22:07.007Z,11.82
2022-12-16T10:24:57.088Z,10.35
2022-12-16T10:27:46.035Z,12.00
2022-12-16T10:30:33.446Z,11.15
2022-12-16T10:33:21.295Z,12.38
2022-12-16T10:36:08.668Z,14.98
2022-12-16T10:38:56.423Z,14.77
2022-12-16T10:41:44.836Z,11.07
2022-12-16T10:44:35.825Z,10.02
2022-12-16T10:47:21.662Z,13.48
2022-12-16T10:50:10.587Z,13.15
2022-12-16T10:53:02.931Z,14.15
2022-12-16T10:56:06.752Z,14.05
2022-12-16T10:58:56.753Z,11.25
2022-12-16T11:01:44.317Z,15.50
2022-12-16T11:04:48.934Z,11.75
2022-12-16T11:07:55.962Z,12.13
2022-12-16T11:10:56.690Z,12.23
2022-12-16T11:13:46.575Z,22.83
2022-12-16T11:16:34.538Z,14.23
2022-12-16T11:19:20.724Z,16.35
2022-12-16T11:22:07.140Z,15.52
2022-12-16T11:24:53.444Z,18.70
2022-12-16T11:27:45.097Z,16.52
2022-12-16T11:30:39.395Z,11.75
2022-12-16T11:33:30.363Z,13.35
2022-12-16T11:36:20.893Z,14.48
2022-12-16T11:39:08.011Z,11.60
2022-12-16T11:41:55.483Z,13.95
2022-12-16T11:44:46.193Z,15.43
2022-12-16T11:47:35.041Z,12.57
2022-12-16T11:50:21.211Z,15.73
2022-12-16T11:53:11.064Z,15.90
2022-12-16T11:56:12.513Z,14.00
2022-12-16T11:59:03.717Z,16.75
2022-12-16T12:01:52.520Z,13.70
2022-12-16T12:04:55.938Z,18.42
2022-12-16T12:07:47.092Z,14.35
2022-12-16T12:10:40.737Z,15.07
2022-12-16T12:13:31.937Z,16.90
2022-12-16T12:16:37.031Z,15.45
2022-12-16T12:19:24.292Z,19.98
2022-12-16T12:22:12.829Z,13.27
2022-12-16T12:25:00.522Z,14.38
2022-12-16T12:27:49.960Z,14.93
2022-12-16T12:30:39.019Z,11.98
2022-12-16T12:33:34.428Z,12.43
2022-12-16T12:36:26.736Z,12.27
2022-12-16T12:39:20.763Z,13.48
2022-12-16T12:42:16.541Z,17.85
2022-12-16T12:45:07.984Z,16.88
2022-12-16T12:47:57.212Z,19.88
2022-12-16T12:50:48.041Z,21.92
2022-12-16T12:53:41.588Z,16.40
2022-12-16T12:56:30.600Z,13.40
2022-12-16T12:59:28.074Z,20.25
2022-12-16T13:02:15.078Z,14.48
2022-12-16T13:05:02.487Z,16.70
2022-12-16T13:07:51.050Z,18.65
2022-12-16T13:10:52.584Z,17.35
2022-12-16T13:13:49.327Z,20.52
2022-12-16T13:16:54.182Z,15.15
2022-12-16T13:19:54.738Z,14.40
2022-12-16T13:22:49.092Z,15.30
2022-12-16T13:25:56.777Z,14.07
2022-12-16T13:28:44.757Z,16.95
2022-12-16T13:31:31.315Z,13.70
2022-12-16T13:34:20.592Z,17.10
2022-12-16T13:37:12.506Z,14.48
2022-12-16T13:40:00.258Z,13.95
2022-12-16T13:43:10.805Z,16.83
2022-12-16T13:45:58.593Z,13.32
2022-12-16T13:48:46.546Z,15.07
2022-12-16T13:51:47.348Z,13.55
2022-12-16T13:54:46.300Z,24.73
2022-12-16T13:57:35.776Z,12.15
2022-12-16T14:00:24.899Z,11.90
2022-12-16T14:03:12.388Z,12.93
2022-12-16T14:06:02.225Z,13.18
2022-12-16T14:09:02.606Z,16.20
2022-12-16T14:12:02.450Z,13.77
2022-12-16T14:14:51.371Z,13.10
2022-12-16T14:17:36.739Z,14.20
2022-12-16T14:20:29.509Z,12.23
2022-12-16T14:23:46.816Z,11.80
2022-12-16T14:26:31.270Z,13.70
2022-12-16T14:29:17.467Z,15.70
2022-12-16T14:32:03.904Z,13.65
2022-12-16T14:34:52.190Z,11.38
2022-12-16T14:37:39.153Z,12.48
2022-12-16T14:40:43.023Z,12.13
2022-12-16T14:43:32.354Z,11.85
2022-12-16T14:46:18.551Z,13.18
2022-12-16T14:49:05.571Z,14.73
2022-12-16T14:51:53.821Z,15.10
2022-12-16T14:54:42.226Z,13.35
2022-12-16T14:57:30.177Z,13.57
2022-12-16T15:00:19.469Z,12.57
2022-12-16T15:03:15.010Z,26.77
2022-12-16T15:06:02.502Z,23.02
2022-12-16T15:08:52.119Z,17.95
2022-12-16T15:11:39.153Z,16.17
2022-12-16T15:14:26.102Z,17.17
2022-12-16T15:17:13.020Z,16.00
2022-12-16T15:20:03.564Z,19.55
2022-12-16T15:22:50.285Z,14.70
2022-12-16T15:25:41.783Z,15.35
2022-12-16T15:28:42.267Z,12.82
2022-12-16T15:31:43.160Z,14.90
2022-12-16T15:34:43.108Z,15.07
2022-12-16T15:37:34.789Z,13.65
2022-12-16T15:40:21.116Z,13.13
2022-12-16T15:43:10.677Z,14.32
2022-12-16T15:45:56.762Z,16.17
2022-12-16T15:48:43.773Z,12.68
2022-12-16T15:51:39.885Z,16.85
2022-12-16T15:54:33.399Z,16.33
2022-12-16T15:57:19.752Z,15.27
2022-12-16T16:00:14.936Z,20.23
2022-12-16T16:03:38.601Z,12.90
2022-12-16T16:06:33.583Z,15.82
2022-12-16T16:09:20.088Z,15.20
2022-12-16T16:12:05.810Z,12.50
2022-12-16T16:14:51.673Z,15.65
2022-12-16T16:17:41.844Z,16.85
2022-12-16T16:20:32.873Z,20.60
2022-12-16T16:23:19.276Z,18.77
2022-12-16T16:26:07.184Z,17.00
2022-12-16T16:28:53.672Z,15.32
2022-12-16T16:31:40.490Z,17.27
2022-12-16T16:34:31.220Z,13.68
2022-12-16T16:37:17.830Z,16.83
2022-12-16T16:40:03.839Z,13.85
2022-12-16T16:42:50.174Z,18.02
2022-12-16T16:45:36.514Z,18.10
2022-12-16T16:48:24.862Z,23.00
2022-12-16T16:51:14.468Z,20.33
2022-12-16T16:54:00.356Z,24.08
2022-12-16T16:56:46.982Z,26.67
2022-12-16T16:59:33.650Z,16.42
2022-12-16T17:02:19.627Z,19.52
2022-12-16T17:05:05.687Z,18.75
2022-12-16T17:07:54.095Z,15.00
2022-12-16T17:10:40.046Z,17.50
2022-12-16T17:13:27.918Z,16.73
2022-12-16T17:16:14.176Z,21.38
2022-12-16T17:19:00.179Z,15.77
2022-12-16T17:21:46.172Z,14.48
2022-12-16T17:24:33.495Z,16.58
2022-12-16T17:27:26.841Z,14.60
2022-12-16T17:30:33.273Z,14.80
2022-12-16T17:33:20.708Z,19.20
2022-12-16T17:36:09.838Z,19.73
2022-12-16T17:38:59.533Z,17.70
2022-12-16T17:41:49.959Z,16.27
2022-12-16T17:44:51.220Z,13.60
2022-12-16T17:51:46.627Z,16.77
2022-12-16T17:54:32.555Z,14.20
2022-12-16T17:57:20.017Z,15.45
2022-12-16T18:00:06.040Z,18.10
2022-12-16T18:02:58.260Z,16.25
2022-12-16T18:05:46.101Z,16.33
2022-12-16T18:08:32.222Z,19.70
2022-12-16T18:11:20.146Z,13.27
2022-12-16T18:14:07.772Z,18.40
2022-12-16T18:16:53.837Z,17.15
2022-12-16T18:19:39.693Z,17.33
2022-12-16T18:22:25.603Z,17.27
2022-12-16T18:25:11.451Z,23.30
2022-12-16T18:27:57.213Z,18.98
2022-12-16T18:30:44.451Z,16.55
2022-12-16T18:33:30.427Z,18.70
2022-12-16T18:36:16.460Z,18.80
2022-12-16T18:39:02.475Z,14.20
2022-12-16T18:41:59.754Z,17.35
2022-12-16T18:44:46.205Z,14.50
2022-12-16T18:47:33.561Z,17.80
2022-12-16T18:50:25.290Z,16.92
2022-12-16T18:53:13.713Z,32.55
2022-12-16T18:55:59.658Z,17.45
2022-12-16T18:58:52.826Z,17.05
2022-12-16T19:01:39.201Z,19.23
2022-12-16T19:04:25.625Z,16.95
2022-12-16T19:07:11.535Z,19.13
2022-12-16T19:09:57.517Z,23.38
2022-12-16T19:12:43.437Z,18.15
2022-12-16T19:15:29.807Z,16.25
2022-12-16T19:18:15.563Z,20.77
2022-12-16T19:21:03.301Z,17.85
2022-12-16T19:23:49.347Z,19.30
2022-12-16T19:26:34.493Z,20.70
2022-12-16T19:29:25.129Z,18.00
2022-12-16T19:32:11.201Z,29.13
2022-12-16T19:34:58.101Z,24.88
2022-12-16T19:37:46.450Z,27.63
2022-12-16T19:40:34.281Z,26.45
2022-12-16T19:43:21.977Z,23.92
2022-12-16T19:46:10.899Z,25.33
2022-12-16T19:48:57.080Z,24.92
2022-12-16T19:51:43.664Z,18.23
2022-12-16T19:54:30.814Z,20.75
2022-12-16T19:57:16.752Z,19.45
2022-12-16T20:00:02.553Z,23.83
2022-12-16T20:02:58.005Z,21.52
2022-12-16T20:05:44.533Z,24.45
2022-12-16T20:08:32.330Z,35.47
2022-12-16T20:11:24.582Z,43.92
2022-12-16T20:14:14.840Z,38.75
2022-12-16T20:17:01.983Z,28.30
2022-12-16T20:19:48.040Z,22.85
2022-12-16T20:22:35.348Z,19.75
2022-12-16T20:25:21.862Z,22.92
2022-12-16T20:28:12.212Z,25.80
2022-12-16T20:30:59.176Z,18.88
2022-12-16T20:33:46.423Z,20.67
2022-12-16T20:36:35.301Z,22.73
2022-12-16T20:39:21.808Z,23.23
2022-12-16T20:42:09.479Z,16.50
2022-12-16T20:44:57.024Z,29.23
2022-12-16T20:47:43.351Z,18.23
2022-12-16T20:50:29.270Z,22.35
2022-12-16T20:53:15.299Z,15.35
2022-12-16T20:56:01.470Z,16.40
2022-12-16T20:58:47.934Z,14.10
2022-12-16T21:01:36.292Z,15.20
2022-12-16T21:04:23.054Z,16.05
2022-12-16T21:07:10.795Z,17.10
2022-12-16T21:09:59.221Z,20.60
2022-12-16T21:12:48.712Z,17.13
2022-12-16T21:15:53.090Z,17.38
2022-12-16T21:18:46.338Z,22.15
2022-12-16T21:21:33.945Z,20.13
2022-12-16T21:24:22.817Z,19.60
2022-12-16T21:27:13.215Z,27.05
2022-12-16T21:30:00.834Z,32.55
2022-12-16T21:32:47.721Z,24.27
2022-12-16T21:35:39.169Z,22.10
2022-12-16T21:38:27.671Z,17.67
2022-12-16T21:41:16.458Z,18.38
2022-12-16T21:44:04.105Z,27.00
2022-12-16T21:46:49.987Z,21.25
2022-12-16T21:49:38.959Z,22.98
2022-12-16T21:52:28.928Z,26.67
2022-12-16T21:55:17.804Z,17.30
2022-12-16T21:58:04.768Z,25.27
2022-12-16T22:00:53.583Z,15.60
2022-12-16T22:03:52.873Z,17.50
2022-12-16T22:06:44.303Z,20.67
2022-12-16T22:09:35.997Z,18.50
2022-12-16T22:12:23.642Z,16.48
2022-12-16T22:15:10.528Z,18.27
2022-12-16T22:18:01.874Z,17.35
2022-12-16T22:20:50.364Z,22.13
2022-12-16T22:23:37.562Z,20.00
2022-12-16T22:26:25.376Z,19.70
2022-12-16T22:29:14.089Z,14.40
2022-12-16T22:32:01.038Z,19.27
2022-12-16T22:34:48.098Z,15.40
2022-12-16T22:37:35.863Z,20.17
2022-12-16T22:40:23.757Z,18.13
2022-12-16T22:43:13.356Z,15.32
2022-12-16T22:45:59.522Z,20.63
2022-12-16T22:48:47.511Z,17.42
2022-12-16T22:51:34.861Z,20.00
2022-12-16T22:54:21.977Z,17.77
2022-12-16T22:57:10.377Z,14.75
2022-12-16T22:59:57.769Z,16.92
2022-12-16T23:02:43.516Z,20.45
2022-12-16T23:05:29.472Z,20.80
2022-12-16T23:08:15.480Z,16.23
2022-12-16T23:11:01.392Z,17.27
2022-12-16T23:13:47.274Z,23.48
2022-12-16T23:16:34.479Z,17.35
2022-12-16T23:19:20.550Z,17.70
2022-12-16T23:22:06.979Z,19.00
2022-12-16T23:24:52.764Z,16.90
2022-12-16T23:27:39.722Z,18.88
2022-12-16T23:30:26.532Z,20.70
2022-12-16T23:33:17.352Z,19.35
2022-12-16T23:36:03.423Z,19.83
2022-12-16T23:38:57.662Z,14.55
2022-12-16T23:41:42.999Z,18.13
2022-12-16T23:44:37.746Z,18.23
2022-12-16T23:47:24.174Z,19.55
2022-12-16T23:50:15.838Z,20.50
2022-12-16T23:53:02.035Z,18.92
2022-12-16T23:55:48.088Z,16.20
2022-12-16T23:58:34.010Z,18.13
